Sertosa Veintisiete — EAJZ — position and weather

sailwx.info

Track history (hours):
 
Tides and Currents Weather Stations Pressure Air Temp Water Temp Dewpoint Dewpoint Depression Visibility Wind Speed Wind Dir Waves Ship Positions

Sertosa Veintisiete

Last reported at 2017-Jun-25 02:48 UTC. Time now 2017-Jun-25 03:44 UTC.
Position N 36°10' W 005°23'.

Length 24 m; draft 4.2 m.

Type: Tug. MMSI: 224337000.

Date/timePositionNaut miles runAvg speedWind from/ knotsBaromVisibWave heightAir tempDewpointWater temp
2017-Jun-25 02:48N 36°10' W 005°23'1 4.1
2017-Jun-25 02:30N 36°11' W 005°24'0 0.1
2017-Jun-25 02:00N 36°11' W 005°24'0 0.0
2017-Jun-25 01:30N 36°11' W 005°24'0 0.0
2017-Jun-25 00:09N 36°11' W 005°24'0 1.3
2017-Jun-24 23:59N 36°11' W 005°24'0 0.4
2017-Jun-24 23:24N 36°10' W 005°24'0 0.4
2017-Jun-24 23:00N 36°11' W 005°24'0 0.0
2017-Jun-24 22:30N 36°11' W 005°24'0 0.0
2017-Jun-24 21:57N 36°11' W 005°24'0 0.1
2017-Jun-24 21:17N 36°11' W 005°24'1 2.0
2017-Jun-24 20:50N 36°10' W 005°24'1 3.4
2017-Jun-24 20:30N 36°10' W 005°23'0 0.0
2017-Jun-24 20:00N 36°10' W 005°23'0 0.0
2017-Jun-24 19:30N 36°10' W 005°23'0 0.0
2017-Jun-24 19:00N 36°10' W 005°23'0 0.0
2017-Jun-24 18:11N 36°10' W 005°23'0 0.0
2017-Jun-24 18:00N 36°10' W 005°23'0 0.0
2017-Jun-24 17:30N 36°10' W 005°23'0 0.0
2017-Jun-24 16:46N 36°10' W 005°23'0 0.0
2017-Jun-24 16:26N 36°10' W 005°23'0 0.0
2017-Jun-24 15:03N 36°10' W 005°23'0 0.0
2017-Jun-24 14:42N 36°10' W 005°23'0 0.0
2017-Jun-24 13:59N 36°10' W 005°23'0 0.0
2017-Jun-24 13:26N 36°10' W 005°23'0 0.0
2017-Jun-24 13:00N 36°10' W 005°23'0 0.2
2017-Jun-24 12:30N 36°10' W 005°23'0 0.0
2017-Jun-24 09:28N 36°10' W 005°23'0 0.0
2017-Jun-24 09:00N 36°10' W 005°23'0 0.0
2017-Jun-24 08:27N 36°10' W 005°23'0 0.0
2017-Jun-24 07:53N 36°10' W 005°23'0 0.0
2017-Jun-24 06:32N 36°10' W 005°23'0 0.0
2017-Jun-24 06:16N 36°10' W 005°23'0 0.0
2017-Jun-24 06:00N 36°10' W 005°23'0 0.0
2017-Jun-24 05:28N 36°10' W 005°23'0 0.0
2017-Jun-24 04:52N 36°10' W 005°23'0 0.0
2017-Jun-24 04:28N 36°10' W 005°23'0 0.0
2017-Jun-24 04:00N 36°10' W 005°23'0 0.0
2017-Jun-24 03:08N 36°10' W 005°23'0 0.1
2017-Jun-24 03:01N 36°10' W 005°23'1 1.7
2017-Jun-24 02:30N 36°11' W 005°24'1 0.4
2017-Jun-24 00:19N 36°10' W 005°23'0 0.0
2017-Jun-24 00:00N 36°10' W 005°23'0 0.0
2017-Jun-23 23:30N 36°10' W 005°23'1 2.0
2017-Jun-23 23:00N 36°11' W 005°24'0 0.7
2017-Jun-23 22:27N 36°10' W 005°24'1 1.1
2017-Jun-23 21:44N 36°10' W 005°23'0 0.0
2017-Jun-23 21:28N 36°10' W 005°23'0 0.0
2017-Jun-23 21:00N 36°10' W 005°23'0 0.0
2017-Jun-23 20:30N 36°10' W 005°23'0 0.0
2017-Jun-23 20:00N 36°10' W 005°23'0 0.0
2017-Jun-23 19:30N 36°10' W 005°23'1 0.4
2017-Jun-23 18:00N 36°11' W 005°24'1 0.5
2017-Jun-23 16:47N 36°10' W 005°23'1 4.2
2017-Jun-23 16:30N 36°11' W 005°24'0 0.0
2017-Jun-23 16:00N 36°11' W 005°24'0 0.0
2017-Jun-23 15:31N 36°11' W 005°24'0 0.0
2017-Jun-23 15:00N 36°11' W 005°24'0 0.0
2017-Jun-23 14:00N 36°11' W 005°24'0 0.0
2017-Jun-23 13:30N 36°11' W 005°24'0 0.0
2017-Jun-23 13:00N 36°11' W 005°24'0 0.0
2017-Jun-23 12:26N 36°11' W 005°24'0 0.0
2017-Jun-23 10:56N 36°11' W 005°24'0 1.1
2017-Jun-23 10:29N 36°11' W 005°24'0 0.4
2017-Jun-23 10:00N 36°11' W 005°24'0 0.6
2017-Jun-23 09:30N 36°11' W 005°24'1 0.1
2017-Jun-22 23:59N 36°10' W 005°23'4 8.3
2017-Jun-22 23:30N 36°06' W 005°23'5 9.4
2017-Jun-22 23:00N 36°02' W 005°21'4 8.5
2017-Jun-22 22:31N 35°58' W 005°20'4 8.3
2017-Jun-22 22:00N 35°54' W 005°19'0 0.3
2017-Jun-22 21:30N 35°54' W 005°19'1 1.8
2017-Jun-22 21:00N 35°55' W 005°18'510.2
2017-Jun-22 20:30N 35°60' W 005°20'11 0.6
2017-Jun-22 02:27N 36°11' W 005°24'1 0.6
2017-Jun-22 01:14N 36°11' W 005°23'0 2.1
2017-Jun-22 01:00N 36°11' W 005°24'1 0.9
2017-Jun-22 00:21N 36°10' W 005°24'0 1.3
2017-Jun-22 00:00N 36°10' W 005°24'1 1.7
2017-Jun-21 23:26N 36°10' W 005°25'0 0.7
2017-Jun-21 23:00N 36°10' W 005°25'2 0.7
2017-Jun-21 20:10N 36°10' W 005°23'1 0.1
2017-Jun-21 05:11N 36°11' W 005°24'0 0.2
2017-Jun-21 04:45N 36°11' W 005°24'0 0.0
2017-Jun-21 04:26N 36°11' W 005°24'0 0.0
2017-Jun-21 03:59N 36°11' W 005°24'0 0.2
2017-Jun-21 03:18N 36°11' W 005°24'0 0.2
2017-Jun-21 02:59N 36°11' W 005°24'0 0.9
2017-Jun-21 02:28N 36°10' W 005°25'0 0.8
2017-Jun-21 01:55N 36°11' W 005°24'8 3.1
2017-Jun-20 23:19N 36°03' W 005°22'3 8.9
2017-Jun-20 23:00N 36°00' W 005°21'4 8.8
2017-Jun-20 22:30N 35°56' W 005°19'2 5.0
2017-Jun-20 22:00N 35°54' W 005°19'0 0.8
2017-Jun-20 21:30N 35°54' W 005°19'0 0.7
2017-Jun-20 21:00N 35°54' W 005°19'0 0.0
2017-Jun-20 20:30N 35°54' W 005°19'0 0.7
2017-Jun-20 20:00N 35°54' W 005°18'1 1.2
2017-Jun-20 19:30N 35°54' W 005°19'1 1.8
2017-Jun-20 19:00N 35°54' W 005°18'1 1.5
2017-Jun-20 18:30N 35°54' W 005°19'0 0.3
2017-Jun-20 18:00N 35°54' W 005°19'0 0.0
2017-Jun-20 17:30N 35°54' W 005°19'0 0.1
2017-Jun-20 17:00N 35°54' W 005°19'0 0.0
2017-Jun-20 16:30N 35°54' W 005°19'0 0.0
2017-Jun-20 16:01N 35°54' W 005°19'3 5.7
2017-Jun-20 15:30N 35°56' W 005°20'5 9.0
2017-Jun-20 15:00N 36°01' W 005°22'10 0.7
2017-Jun-20 00:16N 36°10' W 005°23'0 0.0
2017-Jun-20 00:00N 36°10' W 005°23'1 0.9
2017-Jun-19 22:43N 36°10' W 005°24'1 2.0
2017-Jun-19 22:08N 36°10' W 005°23'0 0.0
2017-Jun-19 21:48N 36°10' W 005°23'0 0.0
2017-Jun-19 21:29N 36°10' W 005°23'0 0.0
2017-Jun-19 20:54N 36°10' W 005°23'0 0.0
2017-Jun-19 20:30N 36°10' W 005°23'0 0.0
2017-Jun-19 20:00N 36°10' W 005°23'0 0.0
2017-Jun-19 19:30N 36°10' W 005°23'0 0.0
2017-Jun-19 18:45N 36°10' W 005°23'0 0.0
2017-Jun-19 01:05N 36°10' W 005°23'0 0.0
2017-Jun-19 01:00N 36°10' W 005°23'0 0.0
2017-Jun-19 00:29N 36°10' W 005°23'0 0.0
2017-Jun-19 00:00N 36°10' W 005°23'0 0.0
2017-Jun-18 23:29N 36°10' W 005°23'0 0.0
2017-Jun-18 18:56N 36°10' W 005°23'0 0.0
2017-Jun-18 18:29N 36°10' W 005°23'1 2.5
2017-Jun-18 17:58N 36°11' W 005°24'0 0.1
2017-Jun-18 17:26N 36°11' W 005°24'1 0.1
2017-Jun-18 06:43N 36°10' W 005°23'0 0.0
2017-Jun-18 06:30N 36°10' W 005°23'0 0.0
2017-Jun-18 06:00N 36°10' W 005°23'1 0.3
2017-Jun-18 03:40N 36°11' W 005°24'0 0.6
2017-Jun-18 03:21N 36°11' W 005°24'0 0.2
2017-Jun-18 01:45N 36°11' W 005°24'0 0.0
2017-Jun-18 01:22N 36°11' W 005°24'0 0.0
2017-Jun-18 00:58N 36°11' W 005°24'0 0.0
2017-Jun-17 23:45N 36°11' W 005°24'0 0.0
2017-Jun-17 23:30N 36°11' W 005°24'0 0.2
2017-Jun-17 21:11N 36°11' W 005°24'0 0.2
2017-Jun-17 19:24N 36°11' W 005°24'0 0.0
2017-Jun-17 19:00N 36°11' W 005°24'0 1.0
2017-Jun-17 18:31N 36°11' W 005°24'1 0.5
2017-Jun-17 16:37N 36°10' W 005°23'0 0.0
2017-Jun-17 16:30N 36°10' W 005°23'0 0.0
2017-Jun-17 16:00N 36°10' W 005°23'1 1.2
2017-Jun-17 15:30N 36°10' W 005°23'1 2.4
2017-Jun-17 15:00N 36°10' W 005°25'1 1.9
2017-Jun-17 14:15N 36°10' W 005°23'1 1.7
2017-Jun-17 13:30N 36°11' W 005°24'1 0.1
2017-Jun-17 01:54N 36°10' W 005°23'1 2.7
2017-Jun-17 01:28N 36°11' W 005°24'0 0.0
2017-Jun-17 01:00N 36°11' W 005°24'0 0.0
2017-Jun-17 00:29N 36°11' W 005°24'0 0.0
2017-Jun-16 23:59N 36°11' W 005°24'0 0.0
2017-Jun-16 23:30N 36°11' W 005°24'0 0.0
2017-Jun-16 22:48N 36°11' W 005°24'0 1.6
2017-Jun-16 22:30N 36°11' W 005°24'0 0.2
2017-Jun-16 21:37N 36°11' W 005°24'1 3.3
2017-Jun-16 21:28N 36°10' W 005°24'0 0.5
2017-Jun-16 20:59N 36°10' W 005°24'0 0.4
2017-Jun-16 20:26N 36°11' W 005°24'0 0.0
2017-Jun-16 19:43N 36°11' W 005°24'0 0.0
2017-Jun-16 19:30N 36°11' W 005°24'5 0.7
2017-Jun-16 12:19N 36°06' W 005°24'3 9.4
2017-Jun-16 12:00N 36°03' W 005°23'510.1
2017-Jun-16 11:30N 35°58' W 005°21'5 9.5
2017-Jun-16 11:00N 35°54' W 005°19'0 0.2
2017-Jun-16 10:30N 35°54' W 005°19'0 0.4
2017-Jun-16 10:00N 35°54' W 005°18'0 0.1
2017-Jun-16 09:30N 35°54' W 005°18'0 0.0
2017-Jun-16 09:00N 35°54' W 005°18'0 0.8
2017-Jun-16 08:30N 35°54' W 005°19'4 7.5
2017-Jun-16 08:00N 35°57' W 005°20'13 0.8
2017-Jun-15 14:44N 36°10' W 005°23'1 0.8
2017-Jun-15 14:00N 36°10' W 005°24'0 0.4
2017-Jun-15 13:28N 36°11' W 005°24'0 0.4
2017-Jun-15 12:58N 36°11' W 005°24'1 0.3
2017-Jun-15 09:38N 36°10' W 005°23'0 0.8
2017-Jun-15 09:27N 36°10' W 005°24'1 1.5
2017-Jun-15 08:59N 36°11' W 005°24'  
Track history (hours):
 
Tides and Currents Weather Stations Pressure Air Temp Water Temp Dewpoint Dewpoint Depression Visibility Wind Speed Wind Dir Waves Ship Positions

Sertosa Veintisiete

Last reported at 2017-Jun-25 02:48 UTC. Time now 2017-Jun-25 03:44 UTC.
Position N 36°10' W 005°23'.

Length 24 m; draft 4.2 m.

Type: Tug. MMSI: 224337000.

Date/timePositionNaut miles runAvg speedWind from/ knotsBaromVisibWave heightAir tempDewpointWater temp
2017-Jun-25 02:48N 36°10' W 005°23'1 4.1
2017-Jun-25 02:30N 36°11' W 005°24'0 0.1
2017-Jun-25 02:00N 36°11' W 005°24'0 0.0
2017-Jun-25 01:30N 36°11' W 005°24'0 0.0
2017-Jun-25 00:09N 36°11' W 005°24'0 1.3
2017-Jun-24 23:59N 36°11' W 005°24'0 0.4
2017-Jun-24 23:24N 36°10' W 005°24'0 0.4
2017-Jun-24 23:00N 36°11' W 005°24'0 0.0
2017-Jun-24 22:30N 36°11' W 005°24'0 0.0
2017-Jun-24 21:57N 36°11' W 005°24'0 0.1
2017-Jun-24 21:17N 36°11' W 005°24'1 2.0
2017-Jun-24 20:50N 36°10' W 005°24'1 3.4
2017-Jun-24 20:30N 36°10' W 005°23'0 0.0
2017-Jun-24 20:00N 36°10' W 005°23'0 0.0
2017-Jun-24 19:30N 36°10' W 005°23'0 0.0
2017-Jun-24 19:00N 36°10' W 005°23'0 0.0
2017-Jun-24 18:11N 36°10' W 005°23'0 0.0
2017-Jun-24 18:00N 36°10' W 005°23'0 0.0
2017-Jun-24 17:30N 36°10' W 005°23'0 0.0
2017-Jun-24 16:46N 36°10' W 005°23'0 0.0
2017-Jun-24 16:26N 36°10' W 005°23'0 0.0
2017-Jun-24 15:03N 36°10' W 005°23'0 0.0
2017-Jun-24 14:42N 36°10' W 005°23'0 0.0
2017-Jun-24 13:59N 36°10' W 005°23'0 0.0
2017-Jun-24 13:26N 36°10' W 005°23'0 0.0
2017-Jun-24 13:00N 36°10' W 005°23'0 0.2
2017-Jun-24 12:30N 36°10' W 005°23'0 0.0
2017-Jun-24 09:28N 36°10' W 005°23'0 0.0
2017-Jun-24 09:00N 36°10' W 005°23'0 0.0
2017-Jun-24 08:27N 36°10' W 005°23'0 0.0
2017-Jun-24 07:53N 36°10' W 005°23'0 0.0
2017-Jun-24 06:32N 36°10' W 005°23'0 0.0
2017-Jun-24 06:16N 36°10' W 005°23'0 0.0
2017-Jun-24 06:00N 36°10' W 005°23'0 0.0
2017-Jun-24 05:28N 36°10' W 005°23'0 0.0
2017-Jun-24 04:52N 36°10' W 005°23'0 0.0
2017-Jun-24 04:28N 36°10' W 005°23'0 0.0
2017-Jun-24 04:00N 36°10' W 005°23'0 0.0
2017-Jun-24 03:08N 36°10' W 005°23'0 0.1
2017-Jun-24 03:01N 36°10' W 005°23'1 1.7
2017-Jun-24 02:30N 36°11' W 005°24'1 0.4
2017-Jun-24 00:19N 36°10' W 005°23'0 0.0
2017-Jun-24 00:00N 36°10' W 005°23'0 0.0
2017-Jun-23 23:30N 36°10' W 005°23'1 2.0
2017-Jun-23 23:00N 36°11' W 005°24'0 0.7
2017-Jun-23 22:27N 36°10' W 005°24'1 1.1
2017-Jun-23 21:44N 36°10' W 005°23'0 0.0
2017-Jun-23 21:28N 36°10' W 005°23'0 0.0
2017-Jun-23 21:00N 36°10' W 005°23'0 0.0
2017-Jun-23 20:30N 36°10' W 005°23'0 0.0
2017-Jun-23 20:00N 36°10' W 005°23'0 0.0
2017-Jun-23 19:30N 36°10' W 005°23'1 0.4
2017-Jun-23 18:00N 36°11' W 005°24'1 0.5
2017-Jun-23 16:47N 36°10' W 005°23'1 4.2
2017-Jun-23 16:30N 36°11' W 005°24'0 0.0
2017-Jun-23 16:00N 36°11' W 005°24'0 0.0
2017-Jun-23 15:31N 36°11' W 005°24'0 0.0
2017-Jun-23 15:00N 36°11' W 005°24'0 0.0
2017-Jun-23 14:00N 36°11' W 005°24'0 0.0
2017-Jun-23 13:30N 36°11' W 005°24'0 0.0
2017-Jun-23 13:00N 36°11' W 005°24'0 0.0
2017-Jun-23 12:26N 36°11' W 005°24'0 0.0
2017-Jun-23 10:56N 36°11' W 005°24'0 1.1
2017-Jun-23 10:29N 36°11' W 005°24'0 0.4
2017-Jun-23 10:00N 36°11' W 005°24'0 0.6
2017-Jun-23 09:30N 36°11' W 005°24'1 0.1
2017-Jun-22 23:59N 36°10' W 005°23'4 8.3
2017-Jun-22 23:30N 36°06' W 005°23'5 9.4
2017-Jun-22 23:00N 36°02' W 005°21'4 8.5
2017-Jun-22 22:31N 35°58' W 005°20'4 8.3
2017-Jun-22 22:00N 35°54' W 005°19'0 0.3
2017-Jun-22 21:30N 35°54' W 005°19'1 1.8
2017-Jun-22 21:00N 35°55' W 005°18'510.2
2017-Jun-22 20:30N 35°60' W 005°20'11 0.6
2017-Jun-22 02:27N 36°11' W 005°24'1 0.6
2017-Jun-22 01:14N 36°11' W 005°23'0 2.1
2017-Jun-22 01:00N 36°11' W 005°24'1 0.9
2017-Jun-22 00:21N 36°10' W 005°24'0 1.3
2017-Jun-22 00:00N 36°10' W 005°24'1 1.7
2017-Jun-21 23:26N 36°10' W 005°25'0 0.7
2017-Jun-21 23:00N 36°10' W 005°25'2 0.7
2017-Jun-21 20:10N 36°10' W 005°23'1 0.1
2017-Jun-21 05:11N 36°11' W 005°24'0 0.2
2017-Jun-21 04:45N 36°11' W 005°24'0 0.0
2017-Jun-21 04:26N 36°11' W 005°24'0 0.0
2017-Jun-21 03:59N 36°11' W 005°24'0 0.2
2017-Jun-21 03:18N 36°11' W 005°24'0 0.2
2017-Jun-21 02:59N 36°11' W 005°24'0 0.9
2017-Jun-21 02:28N 36°10' W 005°25'0 0.8
2017-Jun-21 01:55N 36°11' W 005°24'8 3.1
2017-Jun-20 23:19N 36°03' W 005°22'3 8.9
2017-Jun-20 23:00N 36°00' W 005°21'4 8.8
2017-Jun-20 22:30N 35°56' W 005°19'2 5.0
2017-Jun-20 22:00N 35°54' W 005°19'0 0.8
2017-Jun-20 21:30N 35°54' W 005°19'0 0.7
2017-Jun-20 21:00N 35°54' W 005°19'0 0.0
2017-Jun-20 20:30N 35°54' W 005°19'0 0.7
2017-Jun-20 20:00N 35°54' W 005°18'1 1.2
2017-Jun-20 19:30N 35°54' W 005°19'1 1.8
2017-Jun-20 19:00N 35°54' W 005°18'1 1.5
2017-Jun-20 18:30N 35°54' W 005°19'0 0.3
2017-Jun-20 18:00N 35°54' W 005°19'0 0.0
2017-Jun-20 17:30N 35°54' W 005°19'0 0.1
2017-Jun-20 17:00N 35°54' W 005°19'0 0.0
2017-Jun-20 16:30N 35°54' W 005°19'0 0.0
2017-Jun-20 16:01N 35°54' W 005°19'3 5.7
2017-Jun-20 15:30N 35°56' W 005°20'5 9.0
2017-Jun-20 15:00N 36°01' W 005°22'10 0.7
2017-Jun-20 00:16N 36°10' W 005°23'0 0.0
2017-Jun-20 00:00N 36°10' W 005°23'1 0.9
2017-Jun-19 22:43N 36°10' W 005°24'1 2.0
2017-Jun-19 22:08N 36°10' W 005°23'0 0.0
2017-Jun-19 21:48N 36°10' W 005°23'0 0.0
2017-Jun-19 21:29N 36°10' W 005°23'0 0.0
2017-Jun-19 20:54N 36°10' W 005°23'0 0.0
2017-Jun-19 20:30N 36°10' W 005°23'0 0.0
2017-Jun-19 20:00N 36°10' W 005°23'0 0.0
2017-Jun-19 19:30N 36°10' W 005°23'0 0.0
2017-Jun-19 18:45N 36°10' W 005°23'0 0.0
2017-Jun-19 01:05N 36°10' W 005°23'0 0.0
2017-Jun-19 01:00N 36°10' W 005°23'0 0.0
2017-Jun-19 00:29N 36°10' W 005°23'0 0.0
2017-Jun-19 00:00N 36°10' W 005°23'0 0.0
2017-Jun-18 23:29N 36°10' W 005°23'0 0.0
2017-Jun-18 18:56N 36°10' W 005°23'0 0.0
2017-Jun-18 18:29N 36°10' W 005°23'1 2.5
2017-Jun-18 17:58N 36°11' W 005°24'0 0.1
2017-Jun-18 17:26N 36°11' W 005°24'1 0.1
2017-Jun-18 06:43N 36°10' W 005°23'0 0.0
2017-Jun-18 06:30N 36°10' W 005°23'0 0.0
2017-Jun-18 06:00N 36°10' W 005°23'1 0.3
2017-Jun-18 03:40N 36°11' W 005°24'0 0.6
2017-Jun-18 03:21N 36°11' W 005°24'0 0.2
2017-Jun-18 01:45N 36°11' W 005°24'0 0.0
2017-Jun-18 01:22N 36°11' W 005°24'0 0.0
2017-Jun-18 00:58N 36°11' W 005°24'0 0.0
2017-Jun-17 23:45N 36°11' W 005°24'0 0.0
2017-Jun-17 23:30N 36°11' W 005°24'0 0.2
2017-Jun-17 21:11N 36°11' W 005°24'0 0.2
2017-Jun-17 19:24N 36°11' W 005°24'0 0.0
2017-Jun-17 19:00N 36°11' W 005°24'0 1.0
2017-Jun-17 18:31N 36°11' W 005°24'1 0.5
2017-Jun-17 16:37N 36°10' W 005°23'0 0.0
2017-Jun-17 16:30N 36°10' W 005°23'0 0.0
2017-Jun-17 16:00N 36°10' W 005°23'1 1.2
2017-Jun-17 15:30N 36°10' W 005°23'1 2.4
2017-Jun-17 15:00N 36°10' W 005°25'1 1.9
2017-Jun-17 14:15N 36°10' W 005°23'1 1.7
2017-Jun-17 13:30N 36°11' W 005°24'1 0.1
2017-Jun-17 01:54N 36°10' W 005°23'1 2.7
2017-Jun-17 01:28N 36°11' W 005°24'0 0.0
2017-Jun-17 01:00N 36°11' W 005°24'0 0.0
2017-Jun-17 00:29N 36°11' W 005°24'0 0.0
2017-Jun-16 23:59N 36°11' W 005°24'0 0.0
2017-Jun-16 23:30N 36°11' W 005°24'0 0.0
2017-Jun-16 22:48N 36°11' W 005°24'0 1.6
2017-Jun-16 22:30N 36°11' W 005°24'0 0.2
2017-Jun-16 21:37N 36°11' W 005°24'1 3.3
2017-Jun-16 21:28N 36°10' W 005°24'0 0.5
2017-Jun-16 20:59N 36°10' W 005°24'0 0.4
2017-Jun-16 20:26N 36°11' W 005°24'0 0.0
2017-Jun-16 19:43N 36°11' W 005°24'0 0.0
2017-Jun-16 19:30N 36°11' W 005°24'5 0.7
2017-Jun-16 12:19N 36°06' W 005°24'3 9.4
2017-Jun-16 12:00N 36°03' W 005°23'510.1
2017-Jun-16 11:30N 35°58' W 005°21'5 9.5
2017-Jun-16 11:00N 35°54' W 005°19'0 0.2
2017-Jun-16 10:30N 35°54' W 005°19'0 0.4
2017-Jun-16 10:00N 35°54' W 005°18'0 0.1
2017-Jun-16 09:30N 35°54' W 005°18'0 0.0
2017-Jun-16 09:00N 35°54' W 005°18'0 0.8
2017-Jun-16 08:30N 35°54' W 005°19'4 7.5
2017-Jun-16 08:00N 35°57' W 005°20'13 0.8
2017-Jun-15 14:44N 36°10' W 005°23'1 0.8
2017-Jun-15 14:00N 36°10' W 005°24'0 0.4
2017-Jun-15 13:28N 36°11' W 005°24'0 0.4
2017-Jun-15 12:58N 36°11' W 005°24'1 0.3
2017-Jun-15 09:38N 36°10' W 005°23'0 0.8
2017-Jun-15 09:27N 36°10' W 005°24'1 1.5
2017-Jun-15 08:59N 36°11' W 005°24'  

Dump ship's entire track history